sensor_id;sensor_type;location;lat;lon;timestamp;P1;durP1;ratioP1;P2;durP2;ratioP2
9960;SDS011;5021;51.506;11.320;2023-04-01T00:00:51;3.83;;;2.40;;
9960;SDS011;5021;51.506;11.320;2023-04-01T00:03:17;5.40;;;2.20;;
9960;SDS011;5021;51.506;11.320;2023-04-01T00:05:44;2.57;;;1.93;;
9960;SDS011;5021;51.506;11.320;2023-04-01T00:08:10;3.73;;;2.17;;
9960;SDS011;5021;51.506;11.320;2023-04-01T00:10:36;3.67;;;2.03;;
9960;SDS011;5021;51.506;11.320;2023-04-01T00:13:02;5.83;;;2.40;;
9960;SDS011;5021;51.506;11.320;2023-04-01T00:15:28;6.03;;;2.30;;
9960;SDS011;5021;51.506;11.320;2023-04-01T00:17:54;4.57;;;2.10;;
9960;SDS011;5021;51.506;11.320;2023-04-01T00:20:20;5.03;;;2.13;;
9960;SDS011;5021;51.506;11.320;2023-04-01T00:22:46;7.63;;;2.50;;
9960;SDS011;5021;51.506;11.320;2023-04-01T00:25:12;2.43;;;2.13;;
9960;SDS011;5021;51.506;11.320;2023-04-01T00:27:38;5.67;;;2.10;;
9960;SDS011;5021;51.506;11.320;2023-04-01T00:30:04;5.90;;;2.43;;
9960;SDS011;5021;51.506;11.320;2023-04-01T00:32:31;3.87;;;2.10;;
9960;SDS011;5021;51.506;11.320;2023-04-01T00:34:57;3.07;;;2.20;;
9960;SDS011;5021;51.506;11.320;2023-04-01T00:37:26;3.17;;;2.20;;
9960;SDS011;5021;51.506;11.320;2023-04-01T00:39:52;2.10;;;1.80;;
9960;SDS011;5021;51.506;11.320;2023-04-01T00:42:18;3.47;;;1.67;;
9960;SDS011;5021;51.506;11.320;2023-04-01T00:44:45;5.60;;;2.30;;
9960;SDS011;5021;51.506;11.320;2023-04-01T00:47:11;3.83;;;2.00;;
9960;SDS011;5021;51.506;11.320;2023-04-01T00:49:38;4.27;;;2.03;;
9960;SDS011;5021;51.506;11.320;2023-04-01T00:52:05;3.03;;;1.80;;
9960;SDS011;5021;51.506;11.320;2023-04-01T00:54:32;3.43;;;1.90;;
9960;SDS011;5021;51.506;11.320;2023-04-01T00:57:00;3.37;;;1.80;;
9960;SDS011;5021;51.506;11.320;2023-04-01T00:59:29;4.80;;;2.03;;
9960;SDS011;5021;51.506;11.320;2023-04-01T01:01:56;3.73;;;2.20;;
9960;SDS011;5021;51.506;11.320;2023-04-01T01:04:23;4.83;;;2.00;;
9960;SDS011;5021;51.506;11.320;2023-04-01T01:06:56;2.80;;;1.83;;
9960;SDS011;5021;51.506;11.320;2023-04-01T01:09:28;4.73;;;2.17;;
9960;SDS011;5021;51.506;11.320;2023-04-01T01:15:17;3.67;;;2.03;;
9960;SDS011;5021;51.506;11.320;2023-04-01T01:17:32;5.23;;;2.20;;
9960;SDS011;5021;51.506;11.320;2023-04-01T01:27:38;4.50;;;2.10;;
9960;SDS011;5021;51.506;11.320;2023-04-01T01:35:52;3.90;;;2.20;;
9960;SDS011;5021;51.506;11.320;2023-04-01T01:38:21;2.53;;;1.87;;
9960;SDS011;5021;51.506;11.320;2023-04-01T01:40:48;5.13;;;2.10;;
9960;SDS011;5021;51.506;11.320;2023-04-01T01:43:19;3.80;;;2.10;;
9960;SDS011;5021;51.506;11.320;2023-04-01T01:45:47;6.13;;;2.37;;
9960;SDS011;5021;51.506;11.320;2023-04-01T01:48:14;3.60;;;1.87;;
9960;SDS011;5021;51.506;11.320;2023-04-01T01:50:41;3.20;;;1.90;;
9960;SDS011;5021;51.506;11.320;2023-04-01T01:53:09;4.70;;;2.23;;
9960;SDS011;5021;51.506;11.320;2023-04-01T01:55:37;3.20;;;1.83;;
9960;SDS011;5021;51.506;11.320;2023-04-01T01:58:05;3.80;;;1.90;;
9960;SDS011;5021;51.506;11.320;2023-04-01T02:00:33;3.00;;;1.97;;
9960;SDS011;5021;51.506;11.320;2023-04-01T02:03:00;3.50;;;1.93;;
9960;SDS011;5021;51.506;11.320;2023-04-01T02:05:26;5.50;;;2.10;;
9960;SDS011;5021;51.506;11.320;2023-04-01T02:08:00;5.00;;;2.03;;
9960;SDS011;5021;51.506;11.320;2023-04-01T02:10:26;5.43;;;2.13;;
9960;SDS011;5021;51.506;11.320;2023-04-01T02:12:54;4.93;;;2.10;;
9960;SDS011;5021;51.506;11.320;2023-04-01T02:15:22;6.37;;;2.30;;
9960;SDS011;5021;51.506;11.320;2023-04-01T02:17:50;4.13;;;2.20;;
9960;SDS011;5021;51.506;11.320;2023-04-01T02:20:18;5.60;;;2.40;;
9960;SDS011;5021;51.506;11.320;2023-04-01T02:22:53;3.70;;;2.23;;
9960;SDS011;5021;51.506;11.320;2023-04-01T02:25:21;4.17;;;2.27;;
9960;SDS011;5021;51.506;11.320;2023-04-01T02:27:48;4.90;;;2.07;;
9960;SDS011;5021;51.506;11.320;2023-04-01T02:30:15;4.20;;;2.13;;
9960;SDS011;5021;51.506;11.320;2023-04-01T02:32:41;3.93;;;2.20;;
9960;SDS011;5021;51.506;11.320;2023-04-01T02:35:11;7.43;;;2.40;;
9960;SDS011;5021;51.506;11.320;2023-04-01T02:37:38;5.13;;;2.13;;
9960;SDS011;5021;51.506;11.320;2023-04-01T02:40:07;4.30;;;2.00;;
9960;SDS011;5021;51.506;11.320;2023-04-01T02:42:34;4.60;;;2.30;;
9960;SDS011;5021;51.506;11.320;2023-04-01T02:45:00;3.33;;;2.17;;
9960;SDS011;5021;51.506;11.320;2023-04-01T02:47:26;4.07;;;2.20;;
9960;SDS011;5021;51.506;11.320;2023-04-01T02:49:52;4.07;;;2.20;;
9960;SDS011;5021;51.506;11.320;2023-04-01T02:52:26;3.13;;;1.73;;
9960;SDS011;5021;51.506;11.320;2023-04-01T02:54:53;4.70;;;2.20;;
9960;SDS011;5021;51.506;11.320;2023-04-01T02:57:19;3.53;;;2.00;;
9960;SDS011;5021;51.506;11.320;2023-04-01T02:59:45;2.03;;;1.80;;
9960;SDS011;5021;51.506;11.320;2023-04-01T03:02:11;3.70;;;1.93;;
9960;SDS011;5021;51.506;11.320;2023-04-01T03:04:37;2.67;;;1.90;;
9960;SDS011;5021;51.506;11.320;2023-04-01T03:07:02;5.20;;;2.30;;
9960;SDS011;5021;51.506;11.320;2023-04-01T03:09:29;4.30;;;1.90;;
9960;SDS011;5021;51.506;11.320;2023-04-01T03:11:55;3.20;;;2.00;;
9960;SDS011;5021;51.506;11.320;2023-04-01T03:14:21;3.37;;;1.80;;
9960;SDS011;5021;51.506;11.320;2023-04-01T03:16:47;2.50;;;2.10;;
9960;SDS011;5021;51.506;11.320;2023-04-01T03:19:13;4.17;;;2.03;;
9960;SDS011;5021;51.506;11.320;2023-04-01T03:21:39;2.13;;;1.67;;
9960;SDS011;5021;51.506;11.320;2023-04-01T03:24:05;2.33;;;1.83;;
9960;SDS011;5021;51.506;11.320;2023-04-01T03:26:32;2.70;;;1.93;;
9960;SDS011;5021;51.506;11.320;2023-04-01T03:28:58;2.60;;;1.90;;
9960;SDS011;5021;51.506;11.320;2023-04-01T03:31:24;2.33;;;1.80;;
9960;SDS011;5021;51.506;11.320;2023-04-01T03:33:50;2.87;;;1.90;;
9960;SDS011;5021;51.506;11.320;2023-04-01T03:36:16;4.73;;;1.93;;
9960;SDS011;5021;51.506;11.320;2023-04-01T03:38:43;3.93;;;2.77;;
9960;SDS011;5021;51.506;11.320;2023-04-01T03:41:13;4.23;;;2.00;;
9960;SDS011;5021;51.506;11.320;2023-04-01T03:43:39;3.20;;;2.00;;
9960;SDS011;5021;51.506;11.320;2023-04-01T03:46:05;2.80;;;2.10;;
9960;SDS011;5021;51.506;11.320;2023-04-01T03:48:31;3.23;;;1.80;;
9960;SDS011;5021;51.506;11.320;2023-04-01T03:50:57;3.20;;;2.10;;
9960;SDS011;5021;51.506;11.320;2023-04-01T03:53:23;3.47;;;1.90;;
9960;SDS011;5021;51.506;11.320;2023-04-01T03:55:49;3.40;;;1.80;;
9960;SDS011;5021;51.506;11.320;2023-04-01T03:58:16;4.07;;;1.90;;
9960;SDS011;5021;51.506;11.320;2023-04-01T04:00:42;2.40;;;1.60;;
9960;SDS011;5021;51.506;11.320;2023-04-01T04:03:08;3.67;;;1.87;;
9960;SDS011;5021;51.506;11.320;2023-04-01T04:05:34;3.17;;;1.87;;
9960;SDS011;5021;51.506;11.320;2023-04-01T04:08:00;3.37;;;1.97;;
9960;SDS011;5021;51.506;11.320;2023-04-01T04:10:26;2.93;;;1.93;;
9960;SDS011;5021;51.506;11.320;2023-04-01T04:12:54;4.27;;;1.90;;
9960;SDS011;5021;51.506;11.320;2023-04-01T04:15:19;2.63;;;1.60;;
9960;SDS011;5021;51.506;11.320;2023-04-01T04:17:46;2.87;;;2.03;;
9960;SDS011;5021;51.506;11.320;2023-04-01T04:20:12;3.30;;;1.77;;
9960;SDS011;5021;51.506;11.320;2023-04-01T04:22:38;4.03;;;1.90;;
9960;SDS011;5021;51.506;11.320;2023-04-01T04:25:04;2.47;;;1.97;;
9960;SDS011;5021;51.506;11.320;2023-04-01T04:27:30;2.60;;;2.07;;
9960;SDS011;5021;51.506;11.320;2023-04-01T04:29:56;2.83;;;1.80;;
9960;SDS011;5021;51.506;11.320;2023-04-01T04:32:22;3.03;;;1.80;;
9960;SDS011;5021;51.506;11.320;2023-04-01T04:34:48;2.53;;;1.90;;
9960;SDS011;5021;51.506;11.320;2023-04-01T04:37:14;4.03;;;2.00;;
9960;SDS011;5021;51.506;11.320;2023-04-01T04:39:40;2.00;;;1.60;;
9960;SDS011;5021;51.506;11.320;2023-04-01T04:42:05;2.97;;;1.90;;
9960;SDS011;5021;51.506;11.320;2023-04-01T04:44:31;2.93;;;2.00;;
9960;SDS011;5021;51.506;11.320;2023-04-01T04:46:57;4.40;;;1.97;;
9960;SDS011;5021;51.506;11.320;2023-04-01T04:49:23;1.87;;;1.70;;
9960;SDS011;5021;51.506;11.320;2023-04-01T04:51:49;4.20;;;1.80;;
9960;SDS011;5021;51.506;11.320;2023-04-01T04:54:15;3.87;;;2.00;;
9960;SDS011;5021;51.506;11.320;2023-04-01T04:56:41;3.47;;;1.90;;
9960;SDS011;5021;51.506;11.320;2023-04-01T04:59:07;3.00;;;1.73;;
9960;SDS011;5021;51.506;11.320;2023-04-01T05:01:33;3.60;;;2.37;;
9960;SDS011;5021;51.506;11.320;2023-04-01T05:03:59;2.90;;;1.93;;
9960;SDS011;5021;51.506;11.320;2023-04-01T05:06:25;3.70;;;1.90;;
9960;SDS011;5021;51.506;11.320;2023-04-01T05:08:54;3.70;;;1.77;;
9960;SDS011;5021;51.506;11.320;2023-04-01T05:11:20;2.70;;;1.87;;
9960;SDS011;5021;51.506;11.320;2023-04-01T05:13:46;4.93;;;2.20;;
9960;SDS011;5021;51.506;11.320;2023-04-01T05:16:13;2.57;;;2.00;;
9960;SDS011;5021;51.506;11.320;2023-04-01T05:18:40;2.30;;;1.73;;
9960;SDS011;5021;51.506;11.320;2023-04-01T05:21:10;3.60;;;1.70;;
9960;SDS011;5021;51.506;11.320;2023-04-01T05:23:36;3.37;;;2.20;;
9960;SDS011;5021;51.506;11.320;2023-04-01T05:26:03;2.57;;;1.93;;
9960;SDS011;5021;51.506;11.320;2023-04-01T05:28:28;4.13;;;1.97;;
9960;SDS011;5021;51.506;11.320;2023-04-01T05:30:54;4.03;;;1.73;;
9960;SDS011;5021;51.506;11.320;2023-04-01T05:33:20;3.37;;;1.80;;
9960;SDS011;5021;51.506;11.320;2023-04-01T05:35:46;3.00;;;1.80;;
9960;SDS011;5021;51.506;11.320;2023-04-01T05:38:12;2.83;;;1.90;;
9960;SDS011;5021;51.506;11.320;2023-04-01T05:40:38;2.90;;;1.80;;
9960;SDS011;5021;51.506;11.320;2023-04-01T05:43:04;2.27;;;1.93;;
9960;SDS011;5021;51.506;11.320;2023-04-01T05:45:30;2.30;;;1.70;;
9960;SDS011;5021;51.506;11.320;2023-04-01T05:47:56;2.30;;;1.77;;
9960;SDS011;5021;51.506;11.320;2023-04-01T05:50:22;2.70;;;2.07;;
9960;SDS011;5021;51.506;11.320;2023-04-01T05:52:48;2.80;;;1.83;;
9960;SDS011;5021;51.506;11.320;2023-04-01T05:55:14;4.10;;;1.67;;
9960;SDS011;5021;51.506;11.320;2023-04-01T05:57:40;4.60;;;1.90;;
9960;SDS011;5021;51.506;11.320;2023-04-01T06:00:06;3.50;;;2.13;;
9960;SDS011;5021;51.506;11.320;2023-04-01T06:02:33;2.80;;;2.00;;
9960;SDS011;5021;51.506;11.320;2023-04-01T06:05:42;4.20;;;2.23;;
9960;SDS011;5021;51.506;11.320;2023-04-01T06:07:50;3.50;;;1.97;;
9960;SDS011;5021;51.506;11.320;2023-04-01T06:10:18;6.83;;;2.00;;
9960;SDS011;5021;51.506;11.320;2023-04-01T06:20:34;2.53;;;1.80;;
9960;SDS011;5021;51.506;11.320;2023-04-01T06:41:11;3.33;;;2.10;;
9960;SDS011;5021;51.506;11.320;2023-04-01T06:49:03;2.20;;;1.60;;
9960;SDS011;5021;51.506;11.320;2023-04-01T06:51:43;2.50;;;1.73;;
9960;SDS011;5021;51.506;11.320;2023-04-01T06:54:19;2.60;;;1.73;;
9960;SDS011;5021;51.506;11.320;2023-04-01T06:56:46;4.93;;;1.90;;
9960;SDS011;5021;51.506;11.320;2023-04-01T06:59:19;2.10;;;1.40;;
9960;SDS011;5021;51.506;11.320;2023-04-01T07:01:50;3.07;;;1.90;;
9960;SDS011;5021;51.506;11.320;2023-04-01T07:04:25;1.43;;;1.33;;
9960;SDS011;5021;51.506;11.320;2023-04-01T07:06:58;3.00;;;1.70;;
9960;SDS011;5021;51.506;11.320;2023-04-01T07:09:26;3.20;;;1.80;;
9960;SDS011;5021;51.506;11.320;2023-04-01T07:11:53;2.77;;;1.83;;
9960;SDS011;5021;51.506;11.320;2023-04-01T07:14:28;3.27;;;1.70;;
9960;SDS011;5021;51.506;11.320;2023-04-01T07:16:58;2.30;;;1.50;;
9960;SDS011;5021;51.506;11.320;2023-04-01T07:19:27;1.70;;;1.50;;
9960;SDS011;5021;51.506;11.320;2023-04-01T07:21:56;3.00;;;1.60;;
9960;SDS011;5021;51.506;11.320;2023-04-01T07:24:32;5.47;;;1.70;;
9960;SDS011;5021;51.506;11.320;2023-04-01T07:26:58;3.33;;;2.17;;
9960;SDS011;5021;51.506;11.320;2023-04-01T07:29:25;2.83;;;1.90;;
9960;SDS011;5021;51.506;11.320;2023-04-01T07:32:13;3.50;;;1.70;;
9960;SDS011;5021;51.506;11.320;2023-04-01T07:34:45;4.27;;;1.50;;
9960;SDS011;5021;51.506;11.320;2023-04-01T07:39:57;2.90;;;1.50;;
9960;SDS011;5021;51.506;11.320;2023-04-01T07:42:31;3.50;;;1.60;;
9960;SDS011;5021;51.506;11.320;2023-04-01T07:45:08;2.00;;;1.40;;
9960;SDS011;5021;51.506;11.320;2023-04-01T07:50:10;2.47;;;1.47;;
9960;SDS011;5021;51.506;11.320;2023-04-01T08:03:09;3.13;;;1.50;;
9960;SDS011;5021;51.506;11.320;2023-04-01T08:08:17;2.60;;;1.43;;
9960;SDS011;5021;51.506;11.320;2023-04-01T08:21:32;2.57;;;1.40;;
9960;SDS011;5021;51.506;11.320;2023-04-01T08:24:04;2.83;;;1.53;;
9960;SDS011;5021;51.506;11.320;2023-04-01T08:26:35;2.20;;;1.50;;
9960;SDS011;5021;51.506;11.320;2023-04-01T08:29:15;1.50;;;1.23;;
9960;SDS011;5021;51.506;11.320;2023-04-01T08:31:48;2.03;;;1.10;;
9960;SDS011;5021;51.506;11.320;2023-04-01T08:34:18;2.63;;;1.57;;
9960;SDS011;5021;51.506;11.320;2023-04-01T08:36:52;1.43;;;0.93;;
9960;SDS011;5021;51.506;11.320;2023-04-01T08:39:22;2.60;;;1.07;;
9960;SDS011;5021;51.506;11.320;2023-04-01T08:52:10;2.27;;;1.23;;
9960;SDS011;5021;51.506;11.320;2023-04-01T08:54:42;2.37;;;1.20;;
9960;SDS011;5021;51.506;11.320;2023-04-01T08:57:14;1.57;;;1.03;;
9960;SDS011;5021;51.506;11.320;2023-04-01T08:59:56;1.43;;;1.00;;
9960;SDS011;5021;51.506;11.320;2023-04-01T09:02:41;2.43;;;1.40;;
9960;SDS011;5021;51.506;11.320;2023-04-01T09:25:51;2.33;;;1.20;;
9960;SDS011;5021;51.506;11.320;2023-04-01T09:33:24;2.10;;;1.17;;
9960;SDS011;5021;51.506;11.320;2023-04-01T09:41:35;1.57;;;1.10;;
9960;SDS011;5021;51.506;11.320;2023-04-01T09:44:11;2.47;;;1.03;;
9960;SDS011;5021;51.506;11.320;2023-04-01T09:59:41;2.13;;;1.60;;
9960;SDS011;5021;51.506;11.320;2023-04-01T10:02:18;1.33;;;1.23;;
9960;SDS011;5021;51.506;11.320;2023-04-01T10:24:11;0.80;;;0.80;;
9960;SDS011;5021;51.506;11.320;2023-04-01T10:29:16;1.53;;;1.03;;
9960;SDS011;5021;51.506;11.320;2023-04-01T10:34:39;1.20;;;1.10;;
9960;SDS011;5021;51.506;11.320;2023-04-01T10:37:15;1.60;;;1.27;;
9960;SDS011;5021;51.506;11.320;2023-04-01T10:39:53;1.50;;;1.40;;
9960;SDS011;5021;51.506;11.320;2023-04-01T10:42:43;2.60;;;1.40;;
9960;SDS011;5021;51.506;11.320;2023-04-01T10:55:53;1.97;;;1.33;;
9960;SDS011;5021;51.506;11.320;2023-04-01T11:01:21;1.40;;;1.30;;
9960;SDS011;5021;51.506;11.320;2023-04-01T11:19:39;1.60;;;1.30;;
9960;SDS011;5021;51.506;11.320;2023-04-01T11:22:13;1.43;;;1.30;;
9960;SDS011;5021;51.506;11.320;2023-04-01T11:24:59;1.67;;;1.47;;
9960;SDS011;5021;51.506;11.320;2023-04-01T11:30:18;1.20;;;1.10;;
9960;SDS011;5021;51.506;11.320;2023-04-01T11:35:46;2.33;;;1.80;;
9960;SDS011;5021;51.506;11.320;2023-04-01T11:38:22;2.30;;;1.67;;
9960;SDS011;5021;51.506;11.320;2023-04-01T11:43:38;2.07;;;1.60;;
9960;SDS011;5021;51.506;11.320;2023-04-01T11:46:12;1.77;;;1.20;;
9960;SDS011;5021;51.506;11.320;2023-04-01T11:48:52;1.20;;;1.10;;
9960;SDS011;5021;51.506;11.320;2023-04-01T11:51:30;1.80;;;1.30;;
9960;SDS011;5021;51.506;11.320;2023-04-01T11:59:27;1.87;;;1.13;;
9960;SDS011;5021;51.506;11.320;2023-04-01T12:02:08;1.10;;;1.10;;
9960;SDS011;5021;51.506;11.320;2023-04-01T12:12:45;1.43;;;1.23;;
9960;SDS011;5021;51.506;11.320;2023-04-01T12:17:48;2.07;;;1.20;;
9960;SDS011;5021;51.506;11.320;2023-04-01T12:20:21;1.37;;;1.00;;
9960;SDS011;5021;51.506;11.320;2023-04-01T12:36:18;1.27;;;1.00;;
9960;SDS011;5021;51.506;11.320;2023-04-01T12:41:49;1.40;;;1.27;;
9960;SDS011;5021;51.506;11.320;2023-04-01T12:44:12;1.17;;;1.17;;
9960;SDS011;5021;51.506;11.320;2023-04-01T12:46:47;2.07;;;1.40;;
9960;SDS011;5021;51.506;11.320;2023-04-01T12:52:10;1.00;;;1.00;;
9960;SDS011;5021;51.506;11.320;2023-04-01T13:07:42;1.60;;;1.27;;
9960;SDS011;5021;51.506;11.320;2023-04-01T13:13:00;1.70;;;1.30;;
9960;SDS011;5021;51.506;11.320;2023-04-01T13:18:07;1.30;;;1.20;;
9960;SDS011;5021;51.506;11.320;2023-04-01T13:20:51;2.93;;;1.53;;
9960;SDS011;5021;51.506;11.320;2023-04-01T13:23:24;1.73;;;1.20;;
9960;SDS011;5021;51.506;11.320;2023-04-01T13:26:16;1.60;;;1.23;;
9960;SDS011;5021;51.506;11.320;2023-04-01T13:28:40;1.30;;;1.20;;
9960;SDS011;5021;51.506;11.320;2023-04-01T13:31:14;1.23;;;1.13;;
9960;SDS011;5021;51.506;11.320;2023-04-01T13:33:47;0.87;;;0.87;;
9960;SDS011;5021;51.506;11.320;2023-04-01T13:44:29;1.40;;;1.23;;
9960;SDS011;5021;51.506;11.320;2023-04-01T13:47:02;1.77;;;1.10;;
9960;SDS011;5021;51.506;11.320;2023-04-01T13:54:53;1.27;;;1.17;;
9960;SDS011;5021;51.506;11.320;2023-04-01T13:57:43;1.00;;;1.00;;
9960;SDS011;5021;51.506;11.320;2023-04-01T14:05:43;2.13;;;1.23;;
9960;SDS011;5021;51.506;11.320;2023-04-01T14:08:19;1.37;;;0.93;;
9960;SDS011;5021;51.506;11.320;2023-04-01T14:11:48;2.17;;;1.20;;
9960;SDS011;5021;51.506;11.320;2023-04-01T14:14:01;1.60;;;1.20;;
9960;SDS011;5021;51.506;11.320;2023-04-01T14:19:12;1.43;;;1.10;;
9960;SDS011;5021;51.506;11.320;2023-04-01T14:21:51;1.20;;;1.10;;
9960;SDS011;5021;51.506;11.320;2023-04-01T14:24:32;0.90;;;0.90;;
9960;SDS011;5021;51.506;11.320;2023-04-01T14:35:13;1.57;;;1.47;;
9960;SDS011;5021;51.506;11.320;2023-04-01T14:37:57;1.30;;;1.20;;
9960;SDS011;5021;51.506;11.320;2023-04-01T14:40:28;1.93;;;1.37;;
9960;SDS011;5021;51.506;11.320;2023-04-01T14:48:06;1.30;;;1.20;;
9960;SDS011;5021;51.506;11.320;2023-04-01T14:50:46;1.27;;;1.10;;
9960;SDS011;5021;51.506;11.320;2023-04-01T14:53:16;1.50;;;1.40;;
9960;SDS011;5021;51.506;11.320;2023-04-01T14:55:48;1.37;;;1.20;;
9960;SDS011;5021;51.506;11.320;2023-04-01T14:58:15;1.27;;;1.17;;
9960;SDS011;5021;51.506;11.320;2023-04-01T15:03:17;1.87;;;1.73;;
9960;SDS011;5021;51.506;11.320;2023-04-01T15:08:30;1.80;;;1.60;;
9960;SDS011;5021;51.506;11.320;2023-04-01T15:16:53;2.03;;;1.80;;
9960;SDS011;5021;51.506;11.320;2023-04-01T15:21:45;1.70;;;1.60;;
9960;SDS011;5021;51.506;11.320;2023-04-01T15:34:30;1.70;;;1.60;;
9960;SDS011;5021;51.506;11.320;2023-04-01T15:37:09;1.77;;;1.67;;
9960;SDS011;5021;51.506;11.320;2023-04-01T15:39:48;1.97;;;1.60;;
9960;SDS011;5021;51.506;11.320;2023-04-01T15:57:52;1.50;;;1.40;;
9960;SDS011;5021;51.506;11.320;2023-04-01T16:02:56;1.70;;;1.60;;
9960;SDS011;5021;51.506;11.320;2023-04-01T16:05:37;1.37;;;1.10;;
9960;SDS011;5021;51.506;11.320;2023-04-01T16:08:28;1.33;;;1.23;;
9960;SDS011;5021;51.506;11.320;2023-04-01T16:13:43;1.60;;;1.50;;
9960;SDS011;5021;51.506;11.320;2023-04-01T16:18:43;3.67;;;1.60;;
9960;SDS011;5021;51.506;11.320;2023-04-01T16:23:50;1.73;;;1.53;;
9960;SDS011;5021;51.506;11.320;2023-04-01T16:29:45;2.33;;;1.60;;
9960;SDS011;5021;51.506;11.320;2023-04-01T16:31:46;2.17;;;1.80;;
9960;SDS011;5021;51.506;11.320;2023-04-01T16:34:16;1.93;;;1.70;;
9960;SDS011;5021;51.506;11.320;2023-04-01T16:36:51;1.80;;;1.70;;
9960;SDS011;5021;51.506;11.320;2023-04-01T16:41:49;1.70;;;1.60;;
9960;SDS011;5021;51.506;11.320;2023-04-01T16:44:22;2.70;;;1.70;;
9960;SDS011;5021;51.506;11.320;2023-04-01T16:46:58;2.13;;;1.93;;
9960;SDS011;5021;51.506;11.320;2023-04-01T16:49:37;3.03;;;2.13;;
9960;SDS011;5021;51.506;11.320;2023-04-01T16:59:46;2.43;;;2.23;;
9960;SDS011;5021;51.506;11.320;2023-04-01T17:02:16;3.07;;;2.30;;
9960;SDS011;5021;51.506;11.320;2023-04-01T17:07:39;2.50;;;2.30;;
9960;SDS011;5021;51.506;11.320;2023-04-01T17:10:21;2.27;;;2.07;;
9960;SDS011;5021;51.506;11.320;2023-04-01T17:15:27;2.27;;;2.07;;
9960;SDS011;5021;51.506;11.320;2023-04-01T17:23:20;2.73;;;2.33;;
9960;SDS011;5021;51.506;11.320;2023-04-01T17:36:55;3.47;;;2.93;;
9960;SDS011;5021;51.506;11.320;2023-04-01T17:38:56;4.07;;;2.80;;
9960;SDS011;5021;51.506;11.320;2023-04-01T17:41:28;3.40;;;2.97;;
9960;SDS011;5021;51.506;11.320;2023-04-01T17:51:55;3.70;;;3.40;;
9960;SDS011;5021;51.506;11.320;2023-04-01T17:59:39;4.07;;;3.77;;
9960;SDS011;5021;51.506;11.320;2023-04-01T18:07:12;4.03;;;3.00;;
9960;SDS011;5021;51.506;11.320;2023-04-01T18:14:43;3.47;;;3.13;;
9960;SDS011;5021;51.506;11.320;2023-04-01T18:17:25;3.87;;;3.27;;
9960;SDS011;5021;51.506;11.320;2023-04-01T18:22:41;3.87;;;3.43;;
9960;SDS011;5021;51.506;11.320;2023-04-01T18:30:13;4.50;;;4.10;;
9960;SDS011;5021;51.506;11.320;2023-04-01T18:32:50;4.70;;;4.30;;
9960;SDS011;5021;51.506;11.320;2023-04-01T18:43:12;5.90;;;5.30;;
9960;SDS011;5021;51.506;11.320;2023-04-01T18:50:51;5.10;;;4.70;;
9960;SDS011;5021;51.506;11.320;2023-04-01T18:53:27;5.10;;;4.37;;
9960;SDS011;5021;51.506;11.320;2023-04-01T18:55:55;5.10;;;4.70;;
9960;SDS011;5021;51.506;11.320;2023-04-01T18:58:29;4.80;;;4.40;;
9960;SDS011;5021;51.506;11.320;2023-04-01T19:05:59;4.80;;;4.30;;
9960;SDS011;5021;51.506;11.320;2023-04-01T19:13:41;4.20;;;3.80;;
9960;SDS011;5021;51.506;11.320;2023-04-01T19:21:33;3.33;;;3.03;;
9960;SDS011;5021;51.506;11.320;2023-04-01T19:24:04;4.27;;;3.30;;
9960;SDS011;5021;51.506;11.320;2023-04-01T19:26:47;3.73;;;3.43;;
9960;SDS011;5021;51.506;11.320;2023-04-01T19:32:01;4.17;;;3.77;;
9960;SDS011;5021;51.506;11.320;2023-04-01T19:42:03;24.47;;;15.80;;
9960;SDS011;5021;51.506;11.320;2023-04-01T19:49:41;7.23;;;6.53;;
9960;SDS011;5021;51.506;11.320;2023-04-01T19:52:15;7.67;;;6.97;;
9960;SDS011;5021;51.506;11.320;2023-04-01T19:54:47;6.90;;;6.20;;
9960;SDS011;5021;51.506;11.320;2023-04-01T19:59:44;9.33;;;8.43;;
9960;SDS011;5021;51.506;11.320;2023-04-01T20:02:22;9.00;;;8.10;;
9960;SDS011;5021;51.506;11.320;2023-04-01T20:04:51;9.47;;;8.00;;
9960;SDS011;5021;51.506;11.320;2023-04-01T20:07:22;8.97;;;8.03;;
9960;SDS011;5021;51.506;11.320;2023-04-01T20:10:04;8.33;;;7.50;;
9960;SDS011;5021;51.506;11.320;2023-04-01T20:12:42;8.70;;;7.80;;
9960;SDS011;5021;51.506;11.320;2023-04-01T20:18:31;7.40;;;6.70;;
9960;SDS011;5021;51.506;11.320;2023-04-01T20:20:53;7.80;;;7.10;;
9960;SDS011;5021;51.506;11.320;2023-04-01T20:23:32;8.90;;;8.00;;
9960;SDS011;5021;51.506;11.320;2023-04-01T20:26:02;7.83;;;7.03;;
9960;SDS011;5021;51.506;11.320;2023-04-01T20:28:32;9.13;;;8.23;;
9960;SDS011;5021;51.506;11.320;2023-04-01T20:31:17;9.50;;;8.60;;
9960;SDS011;5021;51.506;11.320;2023-04-01T20:33:53;10.07;;;9.07;;
9960;SDS011;5021;51.506;11.320;2023-04-01T20:36:31;9.07;;;8.17;;
9960;SDS011;5021;51.506;11.320;2023-04-01T20:41:45;11.10;;;9.20;;
9960;SDS011;5021;51.506;11.320;2023-04-01T20:47:08;8.90;;;8.00;;
9960;SDS011;5021;51.506;11.320;2023-04-01T21:03:08;6.60;;;6.00;;
9960;SDS011;5021;51.506;11.320;2023-04-01T21:05:45;5.90;;;5.33;;
9960;SDS011;5021;51.506;11.320;2023-04-01T21:13:34;5.47;;;4.97;;
9960;SDS011;5021;51.506;11.320;2023-04-01T21:21:35;6.10;;;5.50;;
9960;SDS011;5021;51.506;11.320;2023-04-01T21:24:29;6.40;;;5.80;;
9960;SDS011;5021;51.506;11.320;2023-04-01T21:32:26;6.10;;;5.60;;
9960;SDS011;5021;51.506;11.320;2023-04-01T21:34:59;6.23;;;5.63;;
9960;SDS011;5021;51.506;11.320;2023-04-01T21:37:42;7.50;;;6.23;;
9960;SDS011;5021;51.506;11.320;2023-04-01T21:42:41;7.00;;;6.30;;
9960;SDS011;5021;51.506;11.320;2023-04-01T21:45:23;6.00;;;5.43;;
9960;SDS011;5021;51.506;11.320;2023-04-01T21:48:01;6.53;;;5.90;;
9960;SDS011;5021;51.506;11.320;2023-04-01T21:50:41;6.87;;;6.23;;
9960;SDS011;5021;51.506;11.320;2023-04-01T21:53:19;7.50;;;6.80;;
9960;SDS011;5021;51.506;11.320;2023-04-01T21:55:59;7.13;;;6.43;;
9960;SDS011;5021;51.506;11.320;2023-04-01T22:01:17;6.50;;;5.90;;
9960;SDS011;5021;51.506;11.320;2023-04-01T22:06:34;6.47;;;5.87;;
9960;SDS011;5021;51.506;11.320;2023-04-01T22:09:10;6.80;;;6.10;;
9960;SDS011;5021;51.506;11.320;2023-04-01T22:19:45;5.50;;;5.00;;
9960;SDS011;5021;51.506;11.320;2023-04-01T22:24:51;5.70;;;5.20;;
9960;SDS011;5021;51.506;11.320;2023-04-01T22:27:21;5.07;;;4.63;;
9960;SDS011;5021;51.506;11.320;2023-04-01T22:32:45;4.70;;;4.30;;
9960;SDS011;5021;51.506;11.320;2023-04-01T22:37:57;5.13;;;4.63;;
9960;SDS011;5021;51.506;11.320;2023-04-01T22:40:27;5.80;;;5.07;;
9960;SDS011;5021;51.506;11.320;2023-04-01T22:43:00;6.83;;;6.23;;
9960;SDS011;5021;51.506;11.320;2023-04-01T22:55:38;5.63;;;5.13;;
9960;SDS011;5021;51.506;11.320;2023-04-01T22:58:09;6.40;;;5.80;;
9960;SDS011;5021;51.506;11.320;2023-04-01T23:05:40;5.70;;;5.20;;
9960;SDS011;5021;51.506;11.320;2023-04-01T23:08:34;5.33;;;4.83;;
9960;SDS011;5021;51.506;11.320;2023-04-01T23:11:03;5.67;;;5.07;;
9960;SDS011;5021;51.506;11.320;2023-04-01T23:13:32;5.70;;;4.87;;
9960;SDS011;5021;51.506;11.320;2023-04-01T23:15:59;5.50;;;5.00;;
9960;SDS011;5021;51.506;11.320;2023-04-01T23:21:12;6.60;;;6.00;;
9960;SDS011;5021;51.506;11.320;2023-04-01T23:29:26;6.10;;;5.50;;
9960;SDS011;5021;51.506;11.320;2023-04-01T23:32:05;5.70;;;5.07;;
9960;SDS011;5021;51.506;11.320;2023-04-01T23:34:32;6.43;;;5.50;;
9960;SDS011;5021;51.506;11.320;2023-04-01T23:37:04;6.63;;;6.03;;
9960;SDS011;5021;51.506;11.320;2023-04-01T23:42:00;7.57;;;6.23;;
9960;SDS011;5021;51.506;11.320;2023-04-01T23:44:27;7.83;;;7.13;;
9960;SDS011;5021;51.506;11.320;2023-04-01T23:46:54;8.20;;;7.40;;
9960;SDS011;5021;51.506;11.320;2023-04-01T23:49:21;8.37;;;7.57;;
9960;SDS011;5021;51.506;11.320;2023-04-01T23:51:54;7.93;;;7.13;;
9960;SDS011;5021;51.506;11.320;2023-04-01T23:54:32;7.83;;;7.13;;
9960;SDS011;5021;51.506;11.320;2023-04-01T23:56:58;7.27;;;6.67;;
9960;SDS011;5021;51.506;11.320;2023-04-01T23:59:29;7.10;;;6.50;;
